Tuesday, July 17, 2018, 1:38 AM EDT
Back to Local

KW99, Petersburg, Grant County Airport

Location: Petersburg, WV, United States Lat: 38.983
Local Time: 1:38 AM EDT ( 5:38 GMT) Lon: -79.133
Time Zone: US/Eastern Elev: 961 ft

Show me the last for .
Show Coded

Time T Td Feel RH Dir Speed Gust Alt SLP Vis Weather Sky Remarks
2018-07-17 01:15 67 67 - 98 270° 3 - 29.96 - 7 CLR None
2018-07-17 00:55 68 68 - 99 - Calm - 29.96 - 3 BR CLR None
2018-07-17 00:35 - - - 0 - Calm - 29.96 - 0 None
2018-07-17 00:15 68 68 - 98 - Calm - 29.96 - 5 BR CLR None
2018-07-16 23:55 69 68 - 98 - Calm - 29.96 - 7 CLR None
2018-07-16 23:35 69 68 - 96 - Calm - 29.97 - 10 CLR None
2018-07-16 23:15 70 69 - 95 - Calm - 29.96 - 10 CLR None
2018-07-16 22:55 70 69 - 95 - Calm - 29.96 - 10 CLR None
2018-07-16 22:35 71 69 76 93 - Calm - 29.96 - 10 CLR None
2018-07-16 22:15 70 69 76 95 - Calm - 29.95 - 10 CLR None
2018-07-16 21:55 71 69 76 92 - Calm - 29.96 - 10 CLR None
2018-07-16 21:35 72 69 76 89 - Calm - 29.95 - 10 CLR None
2018-07-16 21:15 73 70 77 89 - Calm - 29.95 - 7 CLR None
2018-07-16 20:55 73 71 78 91 - Calm - 29.95 - 7 SCT120 None
2018-07-16 20:35 75 71 79 89 160° 5 - 29.95 - 5 BR SCT039 BKN120 None
2018-07-16 20:15 76 72 80 88 160° 6 - 29.95 - 7 -RA SCT040 BKN080 OVC110 None
2018-07-16 19:55 79 71 83 77 - Calm - 29.95 - 10 SCT044 BKN060 BKN070 6-hr Min Temp (8pm): 77.2°F
6-hr Max Temp (8pm): 90.7°F
2018-07-16 19:35 80 70 84 72 - Calm - 29.94 - 10 SCT055 None
2018-07-16 19:15 80 71 84 73 - Calm - 29.94 - 10 CLR None
2018-07-16 18:55 80 71 84 73 - Calm - 29.94 - 10 CLR None
2018-07-16 18:35 79 70 82 74 - Calm - 29.95 - 10 CLR None
2018-07-16 18:15 79 71 83 77 - Calm - 29.94 - 10 CLR None
2018-07-16 17:55 80 70 83 72 - Calm - 29.95 - 10 CLR None
2018-07-16 17:35 79 69 83 70 - Calm - 29.96 - 10 CLR None
2018-07-16 17:15 79 68 82 70 - Calm - 29.97 - 10 CLR None
2018-07-16 16:35 77 69 81 75 - Calm - 29.97 - 10 SCT120 None
2018-07-16 16:15 77 66 80 69 180° 3 - 29.98 - 10 SCT065 SCT075 BKN110 None
2018-07-16 15:55 81 64 83 56 190° 10 - 29.98 - 10 BKN065 BKN075 BKN090 None
2018-07-16 15:35 87 69 92 53 210° 15 20 29.96 - 10 SCT065 SCT080 SCT085 None
2018-07-16 15:15 90 69 96 49 - Calm - 29.95 - 10 CLR None
2018-07-16 14:55 90 69 96 49 - Calm - 29.96 - 10 CLR None
2018-07-16 14:35 90 67 94 47 90° 5 - 29.97 - 10 CLR None
2018-07-16 14:15 89 69 95 52 110° 7 - 29.97 - 10 CLR None
2018-07-16 13:55 88 69 93 52 - Calm - 29.98 - 10 CLR 6-hr Min Temp (2pm): 64.9°F
6-hr Max Temp (2pm): 88.3°F
2018-07-16 13:35 88 69 94 54 120° 5 - 29.99 - 10 CLR None
2018-07-16 13:15 87 70 93 56 110° 5 - 30.00 - 10 CLR None
2018-07-16 12:55 87 68 91 53 - Calm - 30.02 - 10 CLR None
2018-07-16 12:35 87 68 91 53 - Calm - 30.02 - 10 CLR None
2018-07-16 12:15 85 71 91 63 - Calm - 30.02 - 10 CLR None
2018-07-16 11:55 82 70 87 66 - Calm - 30.02 - 7 CLR None
2018-07-16 11:35 81 70 85 69 - Calm - 30.03 - 10 CLR None
2018-07-16 11:15 80 70 83 73 - Calm - 30.03 - 10 CLR None
2018-07-16 10:55 79 71 83 74 - Calm - 30.04 - 10 CLR None
2018-07-16 10:40 78 69 81 75 - Calm - 30.05 - 10 CLR None
2018-07-16 10:15 76 69 79 80 - Calm - 30.05 - 10 CLR None
2018-07-16 09:55 73 68 77 85 - Calm - 30.05 - 10 CLR None
2018-07-16 09:35 71 68 76 90 - Calm - 30.05 - 10 CLR None
2018-07-16 09:15 69 67 - 93 - Calm - 30.05 - 10 CLR None
2018-07-16 08:55 68 68 - 98 - Calm - 30.05 - 10 CLR None
2018-07-16 08:35 67 67 - 100 - Calm - 30.05 - 10 SCT002 None
2018-07-16 08:15 66 66 - 100 - Calm - 30.05 - 2 BR BKN002 Variable visibility
2018-07-16 07:55 65 65 - 100 - Calm - 30.06 - 0 FG OVC002 24-hr Precip Total (8am): 0.32"
6-hr Min Temp (8am): 63.7°F
6-hr Max Temp (8am): 65.1°F
2018-07-16 07:35 65 65 - 100 - Calm - 30.05 - 0 FG OVC002 None
2018-07-16 07:15 64 64 - 100 - Calm - 30.05 - 0 FG OVC002 None
2018-07-16 06:55 64 64 - 100 - Calm - 30.05 - 0 FG OVC002 None
2018-07-16 06:35 64 64 - 100 - Calm - 30.05 - 0 FG OVC002 None
2018-07-16 06:15 64 64 - 100 - Calm - 30.05 - 0 FG OVC002 None
2018-07-16 05:55 64 64 - 100 - Calm - 30.05 - 0 FG OVC002 None
2018-07-16 05:35 64 64 - 99 - Calm - 30.04 - 0 FG OVC002 None
2018-07-16 05:15 64 64 - 100 - Calm - 30.04 - 0 FG OVC002 None
2018-07-16 04:55 64 64 - 100 - Calm - 30.04 - 0 FG OVC002 None
2018-07-16 04:35 65 65 - 100 - Calm - 30.04 - 0 FG OVC002 None
2018-07-16 04:15 65 65 - 100 - Calm - 30.05 - 0 FG OVC002 None
2018-07-16 03:55 65 65 - 100 - Calm - 30.05 - 0 FG OVC002 None
2018-07-16 03:35 65 65 - 100 - Calm - 30.05 - 0 FG OVC002 None
2018-07-16 03:15 65 65 - 100 - Calm - 30.05 - 0 FG OVC002 None
2018-07-16 02:55 65 65 - 100 - Calm - 30.06 - 0 FG OVC002 None
2018-07-16 02:35 65 65 - 99 - Calm - 30.06 - 0 FG OVC002 None
2018-07-16 02:15 65 65 - 100 - Calm - 30.06 - 0 BR BKN002 None
2018-07-16 01:55 65 65 - 99 - Calm - 30.05 - 3 BR SCT002 6-hr Precip Total (2am): 0.01"
6-hr Min Temp (2am): 64.4°F
6-hr Max Temp (2am): 71.6°F
24-hr Min Temp (2am): 64.4°F
24-hr Max Temp (2am): 84.6°F

Support USWX by starting your Amazon purchase here.